Time;durP1;ratioP1;P1;durP2;ratioP2;P2;SDS_P1;SDS_P2;PMS_P1;PMS_P2;Temp;Humidity;BMP_temperature;BMP_pressure;BME280_temperature;BME280_humidity;BME280_pressure;Samples;Min_cycle;Max_cycle;Signal;HPM_P1;HPM_P2
2023/04/29 00:01:34;;;;;;;78.47;59.28;;;11.70;99.90;;;;;;6186079;23;20448;-74
2023/04/29 00:04:04;;;;;;;75.93;59.20;;;11.70;99.90;;;;;;6186960;23;20167;-73
2023/04/29 00:06:31;;;;;;;76.05;57.75;;;11.70;99.90;;;;;;6186444;23;20172;-73
2023/04/29 00:08:58;;;;;;;83.80;61.10;;;11.70;99.90;;;;;;6186432;23;20203;-73
2023/04/29 00:11:24;;;;;;;76.82;59.67;;;11.70;99.90;;;;;;6186301;23;20225;-72
2023/04/29 00:13:53;;;;;;;85.57;56.08;;;11.60;99.90;;;;;;6187318;23;20171;-73
2023/04/29 00:16:20;;;;;;;87.97;59.20;;;11.70;99.90;;;;;;6186955;23;20245;-75
2023/04/29 00:18:47;;;;;;;80.82;59.45;;;11.60;99.90;;;;;;6187105;23;20198;-74
2023/04/29 00:21:13;;;;;;;73.40;55.42;;;11.60;99.90;;;;;;6187722;23;20183;-74
2023/04/29 00:23:40;;;;;;;77.95;53.47;;;11.60;99.90;;;;;;6187481;23;20249;-74
2023/04/29 00:26:07;;;;;;;71.65;53.85;;;11.50;99.90;;;;;;6188222;23;20656;-74
2023/04/29 00:28:34;;;;;;;74.13;52.97;;;11.50;99.90;;;;;;6186597;23;20194;-74
2023/04/29 00:31:02;;;;;;;75.35;52.90;;;11.50;99.90;;;;;;6186476;23;20167;-74
2023/04/29 00:33:29;;;;;;;74.07;50.55;;;11.50;99.90;;;;;;6186702;23;20197;-74
2023/04/29 00:35:56;;;;;;;69.93;48.70;;;11.40;99.90;;;;;;6186222;23;20168;-74
2023/04/29 00:38:23;;;;;;;70.43;53.08;;;11.40;99.90;;;;;;6186244;23;20538;-74
2023/04/29 00:40:50;;;;;;;68.78;49.63;;;11.40;99.90;;;;;;6185666;23;20243;-74
2023/04/29 00:43:17;;;;;;;63.28;48.72;;;11.40;99.90;;;;;;6186327;23;20249;-73
2023/04/29 00:45:45;;;;;;;54.38;42.95;;;11.30;99.90;;;;;;6188000;23;20544;-73
2023/04/29 00:48:14;;;;;;;59.70;44.58;;;11.30;99.90;;;;;;6187525;23;20167;-74
2023/04/29 00:50:41;;;;;;;73.57;45.28;;;11.30;99.90;;;;;;6187281;23;20242;-74
2023/04/29 00:53:09;;;;;;;53.85;40.35;;;11.30;99.90;;;;;;6184938;23;20599;-72
2023/04/29 00:55:36;;;;;;;54.58;39.53;;;11.20;99.90;;;;;;6186488;23;20238;-73
2023/04/29 00:58:03;;;;;;;53.00;40.83;;;11.20;99.90;;;;;;6185961;23;20206;-74
2023/04/29 01:00:31;;;;;;;55.20;42.45;;;11.20;99.90;;;;;;6185731;23;20235;-73
2023/04/29 01:02:59;;;;;;;54.67;41.35;;;11.10;99.90;;;;;;6186258;23;20224;-73
2023/04/29 01:05:27;;;;;;;61.90;41.55;;;11.20;99.90;;;;;;6186329;23;20173;-73
2023/04/29 01:08:05;;;;;;;54.25;37.47;;;11.20;99.90;;;;;;6186014;23;20244;-73
2023/04/29 01:10:39;;;;;;;55.55;38.90;;;11.20;99.90;;;;;;6185719;23;20200;-73
2023/04/29 01:13:09;;;;;;;52.00;40.50;;;11.20;99.90;;;;;;6185169;23;20196;-73
2023/04/29 01:15:47;;;;;;;51.50;39.95;;;11.20;99.90;;;;;;6186595;23;20208;-73
2023/04/29 01:18:23;;;;;;;55.10;39.40;;;11.20;99.90;;;;;;6184444;23;20493;-74
2023/04/29 01:20:51;;;;;;;57.03;38.58;;;11.20;99.90;;;;;;6185483;23;20170;-73
2023/04/29 01:23:18;;;;;;;53.22;39.55;;;11.20;99.90;;;;;;6186549;23;20679;-73
2023/04/29 01:25:47;;;;;;;52.78;38.78;;;11.20;99.90;;;;;;6185939;23;20713;-74
2023/04/29 01:28:25;;;;;;;47.72;38.00;;;11.10;99.90;;;;;;6185591;23;20210;-73
2023/04/29 01:31:00;;;;;;;42.45;35.78;;;11.10;99.90;;;;;;6185905;23;20192;-74
2023/04/29 01:33:39;;;;;;;41.83;35.22;;;11.20;99.90;;;;;;6185683;23;20164;-73
2023/04/29 01:36:17;;;;;;;47.60;38.13;;;11.20;99.90;;;;;;6186101;23;20202;-73
2023/04/29 01:38:53;;;;;;;46.90;35.83;;;11.10;99.90;;;;;;6183852;23;20539;-73
2023/04/29 01:41:28;;;;;;;47.83;35.95;;;11.10;99.90;;;;;;6182748;23;20193;-73
2023/04/29 01:43:58;;;;;;;46.08;33.90;;;11.10;99.90;;;;;;6184312;23;20600;-73
2023/04/29 01:46:25;;;;;;;41.85;33.63;;;11.10;99.90;;;;;;6186082;23;20254;-74
2023/04/29 01:48:54;;;;;;;45.70;36.67;;;11.00;99.90;;;;;;6185969;23;20303;-74
2023/04/29 01:51:21;;;;;;;41.05;33.28;;;11.00;99.90;;;;;;6185642;23;20166;-72
2023/04/29 01:53:48;;;;;;;47.03;33.70;;;10.90;99.90;;;;;;6185672;23;20199;-73
2023/04/29 01:56:17;;;;;;;43.50;33.58;;;10.90;99.90;;;;;;6185384;23;20603;-73
2023/04/29 01:58:45;;;;;;;46.58;33.90;;;10.90;99.90;;;;;;6185560;23;20238;-74
2023/04/29 02:01:12;;;;;;;43.00;33.30;;;10.90;99.90;;;;;;6184949;23;20246;-72
2023/04/29 02:03:39;;;;;;;37.78;30.02;;;10.90;99.90;;;;;;6185660;23;20173;-72
2023/04/29 02:06:06;;;;;;;39.78;34.28;;;10.90;99.90;;;;;;6185659;23;20167;-72
2023/04/29 02:08:33;;;;;;;40.13;30.50;;;10.80;99.90;;;;;;6185649;23;20209;-72
2023/04/29 02:11:01;;;;;;;44.58;33.97;;;10.90;99.90;;;;;;6184748;23;20691;-73
2023/04/29 02:13:28;;;;;;;37.80;28.63;;;10.80;99.90;;;;;;6185611;23;20662;-73
2023/04/29 02:15:58;;;;;;;43.58;31.63;;;10.80;99.90;;;;;;6185208;23;20158;-73
2023/04/29 02:18:25;;;;;;;38.00;30.40;;;10.80;99.90;;;;;;6185266;23;20670;-73
2023/04/29 02:20:59;;;;;;;34.85;28.70;;;10.80;99.90;;;;;;6184900;23;20193;-72
2023/04/29 02:23:26;;;;;;;33.80;27.38;;;10.80;99.90;;;;;;6185323;23;20234;-73
2023/04/29 02:25:53;;;;;;;36.38;27.92;;;10.80;99.90;;;;;;6185458;23;20251;-74
2023/04/29 02:28:20;;;;;;;39.97;29.27;;;10.70;99.90;;;;;;6185529;23;20171;-74
2023/04/29 02:30:47;;;;;;;43.88;30.98;;;10.70;99.90;;;;;;6184855;23;20195;-74
2023/04/29 02:33:16;;;;;;;41.20;30.45;;;10.60;99.90;;;;;;6185715;23;20158;-74
2023/04/29 02:35:42;;;;;;;35.95;27.67;;;10.60;99.90;;;;;;6185102;23;20612;-74
2023/04/29 02:38:10;;;;;;;40.08;28.70;;;10.60;99.90;;;;;;6184826;23;20612;-73
2023/04/29 02:40:41;;;;;;;33.65;27.80;;;10.60;99.90;;;;;;6184622;23;20239;-74
2023/04/29 02:43:08;;;;;;;36.17;30.83;;;10.60;99.90;;;;;;6184961;23;20583;-73
2023/04/29 02:45:35;;;;;;;36.55;29.42;;;10.50;99.90;;;;;;6185387;23;20557;-73
2023/04/29 02:48:02;;;;;;;38.58;29.65;;;10.50;99.90;;;;;;6185580;23;20200;-74
2023/04/29 02:50:30;;;;;;;34.88;26.95;;;10.50;99.90;;;;;;6184595;23;20239;-74
2023/04/29 02:52:57;;;;;;;28.80;25.58;;;10.40;99.90;;;;;;6185833;23;20472;-73
2023/04/29 02:55:25;;;;;;;31.90;25.92;;;10.50;99.90;;;;;;6186762;23;20208;-74
2023/04/29 02:57:52;;;;;;;36.00;26.63;;;10.50;99.90;;;;;;6187971;23;20163;-74
2023/04/29 03:00:20;;;;;;;33.28;28.25;;;10.50;99.90;;;;;;6185987;23;20220;-73
2023/04/29 03:02:47;;;;;;;40.55;27.00;;;10.50;99.90;;;;;;6186156;23;20190;-73
2023/04/29 03:05:15;;;;;;;36.33;26.30;;;10.60;99.90;;;;;;6186214;23;20166;-74
2023/04/29 03:07:44;;;;;;;29.83;25.65;;;10.60;99.90;;;;;;6186897;23;20167;-73
2023/04/29 03:10:11;;;;;;;32.40;25.48;;;10.60;99.90;;;;;;6186442;23;20202;-72
2023/04/29 03:12:38;;;;;;;33.65;26.67;;;10.70;99.90;;;;;;6186426;23;20170;-73
2023/04/29 03:15:09;;;;;;;32.35;25.98;;;10.60;99.90;;;;;;6187071;23;20170;-73
2023/04/29 03:17:36;;;;;;;32.30;24.55;;;10.60;99.90;;;;;;6186470;23;20169;-73
2023/04/29 03:20:03;;;;;;;33.38;24.65;;;10.60;99.90;;;;;;6185793;23;20204;-72
2023/04/29 03:22:30;;;;;;;33.47;25.35;;;10.60;99.90;;;;;;6185576;23;20184;-72
2023/04/29 03:25:00;;;;;;;34.30;24.98;;;10.60;99.90;;;;;;6185560;23;20162;-71
2023/04/29 03:27:27;;;;;;;33.55;27.30;;;10.60;99.90;;;;;;6185368;23;20186;-72
2023/04/29 03:29:54;;;;;;;32.75;26.48;;;10.60;99.90;;;;;;6184869;23;20210;-74
2023/04/29 03:32:21;;;;;;;31.90;25.90;;;10.50;99.90;;;;;;6185093;23;20625;-73
2023/04/29 03:34:49;;;;;;;33.72;23.67;;;10.60;99.90;;;;;;6184943;23;20162;-73
2023/04/29 03:37:16;;;;;;;31.95;24.00;;;10.60;99.90;;;;;;6185336;23;20172;-73
2023/04/29 03:39:43;;;;;;;28.45;23.95;;;10.60;99.90;;;;;;6184161;23;20673;-72
2023/04/29 03:42:11;;;;;;;32.05;25.00;;;10.50;99.90;;;;;;6185249;23;20185;-73
2023/04/29 03:44:38;;;;;;;27.85;24.27;;;10.50;99.90;;;;;;6184859;23;20257;-73
2023/04/29 03:47:05;;;;;;;28.77;23.77;;;10.40;99.90;;;;;;6184910;23;20232;-72
2023/04/29 03:49:32;;;;;;;27.70;23.45;;;10.40;99.90;;;;;;6184298;23;20204;-73
2023/04/29 03:51:59;;;;;;;31.63;23.80;;;10.40;99.90;;;;;;6185324;23;20167;-73
2023/04/29 03:54:26;;;;;;;34.72;24.10;;;10.50;99.90;;;;;;6185030;23;20627;-74
2023/04/29 03:56:53;;;;;;;30.42;23.90;;;10.40;99.90;;;;;;6185074;23;20173;-73
2023/04/29 03:59:22;;;;;;;28.00;22.70;;;10.30;99.90;;;;;;6184260;23;20279;-74
2023/04/29 04:01:50;;;;;;;28.85;23.25;;;10.40;99.90;;;;;;6184649;23;20166;-73
2023/04/29 04:04:17;;;;;;;31.88;24.80;;;10.40;99.90;;;;;;6185072;23;20244;-73
2023/04/29 04:06:50;;;;;;;30.27;24.05;;;10.40;99.90;;;;;;6185258;23;20168;-73
2023/04/29 04:09:17;;;;;;;34.20;25.10;;;10.40;99.90;;;;;;6184429;23;20200;-74
2023/04/29 04:11:44;;;;;;;35.65;24.40;;;10.40;99.90;;;;;;6184596;23;20185;-73
2023/04/29 04:14:11;;;;;;;35.20;25.67;;;10.40;99.90;;;;;;6185232;23;20158;-74
2023/04/29 04:16:39;;;;;;;33.67;26.55;;;10.30;99.90;;;;;;6184258;23;20248;-74
2023/04/29 04:19:06;;;;;;;33.10;25.75;;;10.30;99.90;;;;;;6186434;23;20235;-73
2023/04/29 04:21:33;;;;;;;30.83;25.60;;;10.30;99.90;;;;;;6186576;23;20161;-73
2023/04/29 04:24:00;;;;;;;32.25;26.08;;;10.30;99.90;;;;;;6187013;23;20184;-72
2023/04/29 04:26:27;;;;;;;32.75;25.05;;;10.30;99.90;;;;;;6185889;23;20585;-72
2023/04/29 04:28:54;;;;;;;29.58;25.10;;;10.30;99.90;;;;;;6186152;23;20587;-74
2023/04/29 04:31:20;;;;;;;36.10;26.77;;;10.30;99.90;;;;;;6186048;23;20218;-74
2023/04/29 04:33:49;;;;;;;32.08;25.13;;;10.30;99.90;;;;;;6186857;23;20157;-74
2023/04/29 04:36:16;;;;;;;35.80;27.40;;;10.30;99.90;;;;;;6186660;23;20581;-73
2023/04/29 04:38:43;;;;;;;36.08;26.52;;;10.30;99.90;;;;;;6187021;23;20284;-72
2023/04/29 04:41:09;;;;;;;33.00;27.60;;;10.30;99.90;;;;;;6185710;23;20167;-73
2023/04/29 04:43:37;;;;;;;33.65;28.67;;;10.30;99.90;;;;;;6186509;23;20267;-73
2023/04/29 04:46:10;;;;;;;30.67;25.88;;;10.30;99.90;;;;;;6187034;23;20239;-73
2023/04/29 04:48:37;;;;;;;34.22;28.20;;;10.30;99.90;;;;;;6186328;23;20272;-73
2023/04/29 04:51:09;;;;;;;30.70;26.15;;;10.30;99.90;;;;;;6185531;23;20662;-74
2023/04/29 04:53:40;;;;;;;37.15;27.15;;;10.40;99.90;;;;;;6185941;23;20165;-73
2023/04/29 04:56:08;;;;;;;38.92;27.40;;;10.40;99.90;;;;;;6186812;23;20489;-73
2023/04/29 04:58:35;;;;;;;32.22;27.30;;;10.50;99.90;;;;;;6186157;23;20203;-74
2023/04/29 05:01:02;;;;;;;34.78;27.05;;;10.50;99.90;;;;;;6185689;23;20172;-73
2023/04/29 05:03:29;;;;;;;32.28;25.92;;;10.50;99.90;;;;;;6186785;23;20185;-73
2023/04/29 05:05:56;;;;;;;31.92;27.02;;;10.50;99.90;;;;;;6186278;23;20161;-73
2023/04/29 05:08:24;;;;;;;37.58;27.42;;;10.50;99.90;;;;;;6186663;23;20243;-73
2023/04/29 05:10:51;;;;;;;35.38;26.42;;;10.50;99.90;;;;;;6185511;23;20177;-73
2023/04/29 05:13:18;;;;;;;36.15;26.73;;;10.60;99.90;;;;;;6186666;23;20237;-72
2023/04/29 05:15:45;;;;;;;34.05;27.23;;;10.70;99.90;;;;;;6185688;23;20245;-73
2023/04/29 05:18:12;;;;;;;37.70;28.92;;;10.70;99.90;;;;;;6186375;23;20192;-73
2023/04/29 05:20:39;;;;;;;42.05;30.38;;;10.70;99.90;;;;;;6185706;23;20245;-73
2023/04/29 05:23:06;;;;;;;39.85;28.25;;;10.70;99.90;;;;;;6185778;23;20194;-73
2023/04/29 05:25:34;;;;;;;38.38;27.80;;;10.70;99.90;;;;;;6186081;23;20194;-72
2023/04/29 05:28:03;;;;;;;30.35;26.77;;;10.80;99.90;;;;;;6185693;23;20163;-72
2023/04/29 05:30:30;;;;;;;42.03;28.63;;;10.70;99.90;;;;;;6185081;23;20253;-74
2023/04/29 05:32:57;;;;;;;35.75;28.65;;;10.70;99.90;;;;;;6186029;23;20242;-73
2023/04/29 05:35:24;;;;;;;40.08;30.27;;;10.70;99.90;;;;;;6186131;23;20170;-73
2023/04/29 05:37:51;;;;;;;40.22;31.08;;;10.60;99.90;;;;;;6185955;23;20177;-73
2023/04/29 05:40:19;;;;;;;37.78;28.75;;;10.60;99.90;;;;;;6185082;23;20272;-73
2023/04/29 05:42:48;;;;;;;38.65;29.30;;;10.70;99.90;;;;;;6185965;23;20260;-72
2023/04/29 05:45:15;;;;;;;39.40;31.40;;;10.70;99.90;;;;;;6185901;23;20472;-73
2023/04/29 05:47:42;;;;;;;33.33;27.35;;;10.70;99.90;;;;;;6186089;23;20173;-74
2023/04/29 05:50:11;;;;;;;37.58;27.90;;;10.80;99.90;;;;;;6185405;23;20205;-73
2023/04/29 05:52:38;;;;;;;40.40;29.23;;;10.90;99.90;;;;;;6186150;23;20164;-73
2023/04/29 05:55:06;;;;;;;32.78;26.80;;;11.00;99.90;;;;;;6185764;23;20197;-72
2023/04/29 05:57:33;;;;;;;32.85;26.42;;;11.10;99.90;;;;;;6188522;23;20506;-73
2023/04/29 06:00:03;;;;;;;34.15;25.15;;;11.20;99.90;;;;;;6184948;23;20288;-73
2023/04/29 06:02:29;;;;;;;35.20;28.90;;;11.00;99.90;;;;;;6185112;23;20184;-73
2023/04/29 06:04:57;;;;;;;35.55;26.27;;;11.10;99.90;;;;;;6186196;23;20255;-72
2023/04/29 06:07:25;;;;;;;32.55;24.88;;;11.10;99.90;;;;;;6185484;23;20241;-74
2023/04/29 06:09:53;;;;;;;32.78;26.80;;;11.20;99.90;;;;;;6184133;23;20197;-73
2023/04/29 06:12:20;;;;;;;34.15;25.17;;;11.00;99.90;;;;;;6185788;23;20167;-72
2023/04/29 06:14:48;;;;;;;35.97;26.25;;;11.00;99.90;;;;;;6185801;23;20233;-72
2023/04/29 06:17:16;;;;;;;29.67;23.63;;;11.00;99.90;;;;;;6186160;23;20194;-73
2023/04/29 06:19:44;;;;;;;35.42;25.65;;;11.00;99.90;;;;;;6185423;23;20256;-73
2023/04/29 06:22:12;;;;;;;33.13;25.17;;;11.00;99.90;;;;;;6185674;23;20612;-73
2023/04/29 06:24:38;;;;;;;29.80;23.60;;;11.00;99.90;;;;;;6185596;23;20190;-73
2023/04/29 06:27:05;;;;;;;30.33;22.83;;;11.10;99.90;;;;;;6185906;23;20185;-74
2023/04/29 06:29:32;;;;;;;33.35;23.85;;;11.00;99.90;;;;;;6185086;23;20319;-74
2023/04/29 06:32:00;;;;;;;33.67;25.50;;;11.20;99.90;;;;;;6186200;23;20657;-75
2023/04/29 06:34:28;;;;;;;33.65;25.73;;;11.30;99.90;;;;;;6185930;23;20202;-73
2023/04/29 06:36:56;;;;;;;33.35;24.38;;;11.40;99.90;;;;;;6185527;23;20638;-74
2023/04/29 06:39:23;;;;;;;31.00;22.83;;;11.40;99.90;;;;;;6184562;23;20277;-74
2023/04/29 06:41:50;;;;;;;30.25;23.48;;;11.50;99.90;;;;;;6184196;23;20259;-75
2023/04/29 06:44:18;;;;;;;32.17;24.70;;;11.60;99.90;;;;;;6185600;23;20191;-74
2023/04/29 06:46:45;;;;;;;32.70;23.88;;;11.70;99.90;;;;;;6184931;23;20198;-74
2023/04/29 06:49:12;;;;;;;36.38;24.33;;;11.70;99.90;;;;;;6185063;23;20202;-75
2023/04/29 06:51:41;;;;;;;27.70;22.08;;;11.70;99.90;;;;;;6185319;23;20239;-75
2023/04/29 06:54:08;;;;;;;27.65;22.13;;;11.60;99.90;;;;;;6185278;23;20243;-74
2023/04/29 06:56:35;;;;;;;29.83;23.73;;;11.70;99.90;;;;;;6185321;23;20243;-74
2023/04/29 06:59:03;;;;;;;34.05;23.48;;;11.70;99.90;;;;;;6184597;23;20200;-74
2023/04/29 07:01:31;;;;;;;28.17;21.90;;;11.80;99.90;;;;;;6183886;23;20166;-74
2023/04/29 07:03:58;;;;;;;31.17;20.58;;;12.00;99.90;;;;;;6184982;23;20273;-72
2023/04/29 07:06:25;;;;;;;29.67;20.70;;;12.10;99.90;;;;;;6185446;23;20199;-72
2023/04/29 07:08:53;;;;;;;28.02;20.95;;;12.20;99.90;;;;;;6184738;23;20264;-72
2023/04/29 07:11:20;;;;;;;30.05;20.77;;;12.30;99.90;;;;;;6184063;23;20174;-73
2023/04/29 07:13:47;;;;;;;26.83;21.00;;;12.40;99.90;;;;;;6184927;23;20167;-72
2023/04/29 07:16:20;;;;;;;27.40;18.50;;;12.50;99.90;;;;;;6185073;23;20167;-72
2023/04/29 07:18:47;;;;;;;25.92;19.85;;;12.50;99.90;;;;;;6184664;23;20253;-73
2023/04/29 07:21:14;;;;;;;28.67;20.15;;;12.40;99.90;;;;;;6184438;23;20635;-73
2023/04/29 07:23:41;;;;;;;31.15;19.55;;;12.60;99.90;;;;;;6185291;23;20193;-71
2023/04/29 07:26:13;;;;;;;23.75;18.10;;;12.70;99.90;;;;;;6184231;23;20274;-74
2023/04/29 07:28:41;;;;;;;24.60;18.35;;;12.70;99.90;;;;;;6184705;23;20625;-73
2023/04/29 07:31:08;;;;;;;24.08;18.85;;;12.70;99.90;;;;;;6183587;23;20608;-73
2023/04/29 07:33:35;;;;;;;21.27;16.70;;;13.00;99.90;;;;;;6185381;23;20163;-71
2023/04/29 07:36:03;;;;;;;22.25;16.30;;;13.10;99.90;;;;;;6185237;23;20200;-75
2023/04/29 07:38:31;;;;;;;24.60;17.38;;;13.20;99.90;;;;;;6185054;23;20175;-74
2023/04/29 07:40:58;;;;;;;21.60;16.30;;;13.20;99.90;;;;;;6184808;23;20169;-72
2023/04/29 07:43:26;;;;;;;19.88;14.93;;;13.50;99.90;;;;;;6184987;23;20216;-72
2023/04/29 07:45:53;;;;;;;22.52;15.45;;;13.80;99.90;;;;;;6185312;23;20630;-72
2023/04/29 07:48:21;;;;;;;21.58;14.52;;;14.10;99.90;;;;;;6184625;23;20169;-72
2023/04/29 07:50:48;;;;;;;19.75;14.52;;;14.50;99.90;;;;;;6185198;23;20169;-72
2023/04/29 07:53:17;;;;;;;22.45;14.57;;;14.60;99.90;;;;;;6186949;23;20166;-75
2023/04/29 07:55:44;;;;;;;17.52;13.00;;;14.80;99.90;;;;;;6188313;23;20164;-74
2023/04/29 07:58:11;;;;;;;20.02;14.07;;;15.00;99.90;;;;;;6188918;23;20223;-73
2023/04/29 08:00:39;;;;;;;16.67;13.63;;;15.10;99.90;;;;;;6187752;23;20284;-73
2023/04/29 08:03:06;;;;;;;14.75;11.43;;;15.30;99.90;;;;;;6189059;23;20197;-72
2023/04/29 08:05:33;;;;;;;14.02;11.23;;;15.50;99.90;;;;;;6188367;23;20241;-72
2023/04/29 08:08:00;;;;;;;17.67;12.45;;;15.70;99.90;;;;;;6187214;23;20164;-72
2023/04/29 08:10:27;;;;;;;15.27;10.15;;;16.00;99.90;;;;;;6185715;23;20203;-74
2023/04/29 08:12:54;;;;;;;13.00;10.93;;;16.30;99.90;;;;;;6186595;23;20199;-74
2023/04/29 08:15:22;;;;;;;15.13;10.80;;;16.30;99.90;;;;;;6186482;23;20182;-75
2023/04/29 08:17:50;;;;;;;12.67;11.30;;;16.40;99.90;;;;;;6186639;23;20470;-73
2023/04/29 08:20:17;;;;;;;13.50;10.13;;;16.70;99.90;;;;;;6186105;23;20466;-73
2023/04/29 08:22:44;;;;;;;11.30;8.60;;;17.00;99.90;;;;;;6185583;23;20471;-74
2023/04/29 08:25:11;;;;;;;12.77;9.23;;;17.30;99.90;;;;;;6186543;23;20437;-74
2023/04/29 08:27:38;;;;;;;14.17;9.80;;;17.70;99.90;;;;;;6185879;23;20474;-73
2023/04/29 08:30:07;;;;;;;13.00;9.80;;;18.30;99.20;;;;;;6185809;23;20803;-72
2023/04/29 08:32:34;;;;;;;11.80;10.10;;;19.00;96.30;;;;;;6186256;23;20407;-73
2023/04/29 08:35:03;;;;;;;12.83;9.03;;;19.30;95.10;;;;;;6186360;23;20820;-72
2023/04/29 08:37:30;;;;;;;12.63;9.43;;;19.80;93.50;;;;;;6186658;23;20427;-72
2023/04/29 08:40:02;;;;;;;15.73;10.10;;;20.40;92.80;;;;;;6183708;23;20994;-70
2023/04/29 08:42:35;;;;;;;11.30;8.43;;;21.30;91.30;;;;;;6187025;23;20441;-73
2023/04/29 08:45:02;;;;;;;13.33;8.13;;;21.40;90.20;;;;;;6186480;23;20514;-71
2023/04/29 08:47:32;;;;;;;16.00;8.67;;;22.20;88.10;;;;;;6187504;23;20403;-73
2023/04/29 08:50:04;;;;;;;11.97;9.00;;;22.40;85.20;;;;;;6185216;23;20506;-74
2023/04/29 08:52:31;;;;;;;12.13;8.07;;;22.50;85.30;;;;;;6185740;23;20398;-75
2023/04/29 08:55:01;;;;;;;11.80;9.27;;;22.20;85.10;;;;;;6186082;23;20384;-72
2023/04/29 08:57:29;;;;;;;12.20;8.53;;;22.40;84.40;;;;;;6185816;23;20404;-74
2023/04/29 09:00:00;;;;;;;10.83;8.30;;;22.50;82.60;;;;;;6184318;23;20938;-69
2023/04/29 09:02:27;;;;;;;10.00;8.30;;;22.50;81.90;;;;;;6186176;23;20396;-71
2023/04/29 09:05:06;;;;;;;9.80;8.20;;;22.50;81.80;;;;;;6185567;23;20510;-71
2023/04/29 09:07:36;;;;;;;12.67;8.37;;;22.70;81.70;;;;;;6186025;23;20735;-71
2023/04/29 09:10:05;;;;;;;11.20;10.00;;;23.10;81.20;;;;;;6185394;23;20467;-71
2023/04/29 09:12:34;;;;;;;13.10;9.00;;;23.50;79.40;;;;;;6186842;23;20396;-73
2023/04/29 09:15:03;;;;;;;9.83;8.27;;;23.70;78.30;;;;;;6184817;23;20428;-71
2023/04/29 09:17:43;;;;;;;9.10;8.20;;;24.50;77.80;;;;;;6185392;23;20419;-71
2023/04/29 09:20:27;;;;;;;12.40;9.63;;;25.30;75.80;;;;;;6184245;23;20435;-71
2023/04/29 09:22:58;;;;;;;9.83;8.07;;;26.00;73.00;;;;;;6185156;23;20414;-71
2023/04/29 09:25:26;;;;;;;12.13;8.43;;;25.80;72.50;;;;;;6185998;23;20456;-72
2023/04/29 09:27:55;;;;;;;13.23;9.57;;;26.10;72.50;;;;;;6185604;23;20427;-71
2023/04/29 09:30:22;;;;;;;10.60;9.53;;;26.30;72.20;;;;;;6184841;23;20451;-71
2023/04/29 09:33:07;;;;;;;9.63;8.63;;;25.90;71.10;;;;;;6184071;23;20454;-70
2023/04/29 09:35:34;;;;;;;10.73;9.73;;;25.60;71.40;;;;;;6185072;23;20787;-72
2023/04/29 09:38:16;;;;;;;13.20;9.80;;;24.70;72.60;;;;;;6185221;23;20395;-71
2023/04/29 09:40:44;;;;;;;12.17;8.47;;;24.30;74.30;;;;;;6185082;23;20424;-70
2023/04/29 09:43:15;;;;;;;12.63;10.20;;;24.80;74.90;;;;;;6184718;23;20491;-71
2023/04/29 09:45:44;;;;;;;10.47;9.10;;;25.20;74.70;;;;;;6185344;23;20463;-69
2023/04/29 09:48:12;;;;;;;11.93;10.30;;;25.40;73.20;;;;;;6185386;23;20391;-72
2023/04/29 09:50:41;;;;;;;13.53;8.80;;;24.70;73.00;;;;;;6184774;23;20427;-71
2023/04/29 09:53:09;;;;;;;11.00;8.60;;;24.80;74.00;;;;;;6185840;23;20392;-74
2023/04/29 09:55:58;;;;;;;18.43;16.03;;;24.60;73.10;;;;;;6185687;23;20396;-70
2023/04/29 09:58:30;;;;;;;10.37;8.70;;;24.30;74.40;;;;;;6185810;23;20388;-72
2023/04/29 10:01:00;;;;;;;9.33;8.33;;;23.70;74.60;;;;;;6185180;23;20402;-75
2023/04/29 10:03:31;;;;;;;12.47;8.77;;;23.90;75.30;;;;;;6186665;23;20420;-73
2023/04/29 10:05:59;;;;;;;10.27;9.13;;;24.00;73.00;;;;;;6184760;23;20515;-74
2023/04/29 10:08:27;;;;;;;9.20;8.30;;;23.80;75.80;;;;;;6184692;23;20847;-72
2023/04/29 10:10:59;;;;;;;11.37;8.90;;;23.80;74.80;;;;;;6183844;23;20422;-70
2023/04/29 10:13:27;;;;;;;10.10;8.83;;;23.40;76.00;;;;;;6183511;23;20435;-73
2023/04/29 10:16:13;;;;;;;16.90;9.47;;;23.30;76.80;;;;;;6183905;23;20427;-71
2023/04/29 10:18:44;;;;;;;11.10;8.90;;;23.10;76.10;;;;;;6183178;23;20520;-70
2023/04/29 10:21:13;;;;;;;11.07;9.50;;;22.60;76.20;;;;;;6185288;23;20419;-73
2023/04/29 10:23:43;;;;;;;11.43;9.60;;;21.70;78.50;;;;;;6185902;23;20428;-71
2023/04/29 10:26:13;;;;;;;14.90;8.90;;;21.70;80.00;;;;;;6187039;23;20455;-73
2023/04/29 10:28:44;;;;;;;10.07;7.40;;;21.90;79.40;;;;;;6189402;23;20502;-72
2023/04/29 10:31:15;;;;;;;10.80;8.70;;;21.70;79.10;;;;;;6184778;23;20402;-72
2023/04/29 10:33:46;;;;;;;10.50;8.80;;;20.90;81.30;;;;;;6184925;23;20395;-72
2023/04/29 10:36:13;;;;;;;11.73;9.30;;;20.40;82.50;;;;;;6185173;23;20434;-72
2023/04/29 10:38:44;;;;;;;10.33;8.23;;;19.80;84.00;;;;;;6185392;23;20425;-71
2023/04/29 10:41:19;;;;;;;11.47;7.83;;;19.50;85.20;;;;;;6184544;23;20484;-72
2023/04/29 10:43:46;;;;;;;11.77;8.23;;;19.30;85.30;;;;;;6185455;23;20419;-71
2023/04/29 10:46:20;;;;;;;10.23;9.03;;;19.70;85.70;;;;;;6185686;23;20483;-72
2023/04/29 10:48:49;;;;;;;10.23;8.93;;;19.80;84.80;;;;;;6186072;23;20506;-72
2023/04/29 10:51:31;;;;;;;11.50;9.17;;;19.10;83.80;;;;;;6186368;23;20442;-71
2023/04/29 10:54:03;;;;;;;13.73;8.50;;;18.80;85.80;;;;;;6186544;23;20427;-74
2023/04/29 10:56:42;;;;;;;11.27;7.67;;;19.00;86.10;;;;;;6184759;23;20424;-73
2023/04/29 10:59:15;;;;;;;9.97;7.47;;;19.10;84.90;;;;;;6184668;23;20494;-70
2023/04/29 11:01:52;;;;;;;9.40;6.20;;;19.30;84.60;;;;;;6184864;23;20479;-72
2023/04/29 11:04:20;;;;;;;12.30;7.30;;;19.70;82.50;;;;;;6184891;23;20582;-71
2023/04/29 11:06:51;;;;;;;10.60;7.60;;;19.20;82.90;;;;;;6186174;23;20419;-71
2023/04/29 11:09:26;;;;;;;10.17;7.60;;;18.70;84.30;;;;;;6186122;23;20436;-73
2023/04/29 11:12:01;;;;;;;10.93;7.00;;;18.40;86.00;;;;;;6184936;23;20457;-73
2023/04/29 11:14:36;;;;;;;7.10;6.30;;;18.30;86.10;;;;;;6185073;23;20475;-71
2023/04/29 11:17:05;;;;;;;10.77;6.77;;;17.90;86.60;;;;;;6184955;23;20426;-72
2023/04/29 11:19:34;;;;;;;7.70;6.90;;;17.80;86.70;;;;;;6184202;23;20440;-75
2023/04/29 11:22:26;;;;;;;8.83;5.73;;;18.00;86.60;;;;;;6185421;23;20430;-73
2023/04/29 11:24:55;;;;;;;7.93;5.77;;;18.20;85.90;;;;;;6180618;23;20447;-72
2023/04/29 11:27:27;;;;;;;7.63;6.00;;;18.40;86.10;;;;;;6187689;23;20494;-73
2023/04/29 11:29:57;;;;;;;8.97;6.00;;;18.50;84.80;;;;;;6185762;23;20427;-74
2023/04/29 11:32:24;;;;;;;6.93;6.20;;;18.30;85.40;;;;;;6186599;23;20396;-72
2023/04/29 11:34:51;;;;;;;9.03;5.90;;;18.20;85.00;;;;;;6186930;23;20482;-72
2023/04/29 11:37:23;;;;;;;11.77;6.53;;;18.20;85.40;;;;;;6187279;23;20787;-71
2023/04/29 11:39:51;;;;;;;7.90;7.07;;;18.20;85.20;;;;;;6186270;23;20462;-70
2023/04/29 11:42:40;;;;;;;6.97;5.13;;;18.10;84.40;;;;;;6187318;23;20400;-72
2023/04/29 11:45:08;;;;;;;7.57;6.27;;;17.90;83.80;;;;;;6187468;23;20487;-70
2023/04/29 11:47:35;;;;;;;6.20;5.27;;;17.80;83.80;;;;;;6187760;23;20396;-71
2023/04/29 11:50:06;;;;;;;9.90;6.50;;;17.80;83.80;;;;;;6186084;23;20514;-73
2023/04/29 11:52:35;;;;;;;7.70;5.70;;;17.80;83.20;;;;;;6186497;23;20406;-72
2023/04/29 11:55:02;;;;;;;7.70;5.23;;;17.60;83.40;;;;;;6187295;23;20388;-72
2023/04/29 11:57:29;;;;;;;16.00;5.20;;;17.40;83.40;;;;;;6186126;23;20482;-74
2023/04/29 11:59:59;;;;;;;8.80;6.30;;;17.40;83.40;;;;;;6185124;23;20729;-73
2023/04/29 12:02:30;;;;;;;8.80;5.27;;;17.40;83.50;;;;;;6186401;23;20423;-71
2023/04/29 12:04:57;;;;;;;5.43;4.73;;;17.30;83.20;;;;;;6186321;23;20738;-74
2023/04/29 12:07:24;;;;;;;5.60;5.03;;;17.30;83.50;;;;;;6185998;23;20799;-72
2023/04/29 12:09:52;;;;;;;5.83;5.20;;;17.30;83.60;;;;;;6185455;23;20494;-73
2023/04/29 12:12:20;;;;;;;17.07;5.93;;;17.20;84.40;;;;;;6186137;23;20401;-74
2023/04/29 12:14:47;;;;;;;11.67;5.50;;;17.30;84.40;;;;;;6186416;23;20391;-73
2023/04/29 12:17:16;;;;;;;9.07;5.40;;;17.30;84.50;;;;;;6184731;23;20391;-72
2023/04/29 12:19:44;;;;;;;6.97;4.67;;;17.20;84.00;;;;;;6184912;23;20570;-72
2023/04/29 12:22:11;;;;;;;6.87;4.53;;;16.90;84.40;;;;;;6186764;23;20394;-71
2023/04/29 12:24:39;;;;;;;7.17;4.53;;;17.00;84.40;;;;;;6185873;23;20400;-71
2023/04/29 12:27:10;;;;;;;6.40;5.07;;;17.00;83.70;;;;;;6186419;23;20422;-74
2023/04/29 12:29:37;;;;;;;6.00;5.10;;;17.00;82.80;;;;;;6185467;23;20760;-73
2023/04/29 12:32:08;;;;;;;6.43;5.47;;;17.00;84.00;;;;;;6185877;23;20860;-70
2023/04/29 12:34:36;;;;;;;7.87;4.80;;;17.20;85.30;;;;;;6186427;23;20419;-71
2023/04/29 12:37:03;;;;;;;11.43;6.07;;;17.20;85.40;;;;;;6186346;23;20399;-72
2023/04/29 12:39:32;;;;;;;10.20;5.13;;;17.30;85.00;;;;;;6185083;23;20459;-70